Time;durP1;ratioP1;P1;durP2;ratioP2;P2;SDS_P1;SDS_P2;PMS_P1;PMS_P2;Temp;Humidity;BMP_temperature;BMP_pressure;BME280_temperature;BME280_humidity;BME280_pressure;Samples;Min_cycle;Max_cycle;Signal;HPM_P1;HPM_P2
2022/06/19 00:02:05;;;;;;;10.38;4.78;;;;;;;15.70;100.00;164671.22;5005638;28;20061;-59
2022/06/19 00:04:31;;;;;;;10.50;4.57;;;;;;;15.63;100.00;164652.25;4992858;28;20026;-59
2022/06/19 00:06:57;;;;;;;18.63;4.18;;;;;;;15.60;100.00;164645.50;5009458;28;20038;-59
2022/06/19 00:09:24;;;;;;;9.15;2.92;;;;;;;15.52;100.00;164625.22;4993160;28;20129;-60
2022/06/19 00:11:50;;;;;;;6.82;3.88;;;;;;;15.47;100.00;164611.66;4998724;28;20107;-60
2022/06/19 00:14:16;;;;;;;19.75;5.00;;;;;;;15.43;100.00;164600.84;5011798;28;20030;-60
2022/06/19 00:16:41;;;;;;;13.45;4.45;;;;;;;15.38;100.00;164587.25;5010425;28;20377;-60
2022/06/19 00:19:06;;;;;;;15.77;5.10;;;;;;;15.30;100.00;164565.66;5011560;28;20025;-60
2022/06/19 00:21:32;;;;;;;11.50;4.95;;;;;;;15.17;100.00;164531.81;5010149;28;20038;-60
2022/06/19 00:23:57;;;;;;;12.85;5.03;;;;;;;15.09;100.00;164510.13;5011526;28;20257;-60
2022/06/19 00:26:22;;;;;;;10.77;3.85;;;;;;;15.03;100.00;164495.22;5008250;28;20080;-60
2022/06/19 00:28:48;;;;;;;14.18;4.25;;;;;;;15.01;100.00;164489.81;4997986;28;20025;-59
2022/06/19 00:31:14;;;;;;;10.23;3.38;;;;;;;14.96;100.00;164476.28;5007767;28;20131;-59
2022/06/19 00:33:40;;;;;;;17.98;3.92;;;;;;;14.96;100.00;164476.28;5011221;28;20495;-60
2022/06/19 00:36:06;;;;;;;17.13;5.13;;;;;;;14.97;100.00;164479.00;5009866;28;20050;-59
2022/06/19 00:38:32;;;;;;;18.35;4.13;;;;;;;14.95;100.00;164473.56;5011794;28;20026;-60
2022/06/19 00:40:59;;;;;;;23.02;5.03;;;;;;;14.86;100.00;164450.59;5009449;28;20136;-60
2022/06/19 00:43:25;;;;;;;14.88;6.35;;;;;;;14.81;100.00;164437.06;4992065;28;20041;-60
2022/06/19 00:45:51;;;;;;;13.30;3.45;;;;;;;14.78;100.00;164430.25;4994717;28;20045;-60
2022/06/19 00:48:22;;;;;;;15.63;3.63;;;;;;;14.71;100.00;164411.31;5011099;28;20036;-60
2022/06/19 00:50:49;;;;;;;23.65;5.40;;;;;;;14.68;100.00;164403.22;5001811;28;20449;-60
2022/06/19 00:53:31;;;;;;;11.95;3.72;;;;;;;14.69;100.00;164405.94;4991959;28;20030;-60
2022/06/19 00:55:57;;;;;;;20.05;3.95;;;;;;;14.66;100.00;164399.19;4988738;28;20516;-60
2022/06/19 00:58:22;;;;;;;18.88;4.35;;;;;;;14.65;100.00;164396.41;4990475;28;20026;-60
2022/06/19 01:00:58;;;;;;;12.43;4.88;;;;;;;14.62;100.00;164386.94;4975026;28;20461;-60
2022/06/19 01:03:31;;;;;;;21.63;6.80;;;;;;;14.62;100.00;164386.94;4980169;28;20129;-60
2022/06/19 01:05:57;;;;;;;19.10;5.47;;;;;;;14.58;100.00;164378.81;4976680;28;20045;-60
2022/06/19 01:08:22;;;;;;;15.43;4.75;;;;;;;14.58;100.00;164378.81;4972280;28;20037;-60
2022/06/19 01:10:49;;;;;;;13.73;3.47;;;;;;;14.60;100.00;164384.25;4985505;28;20042;-60
2022/06/19 01:13:18;;;;;;;16.85;4.80;;;;;;;14.56;100.00;164372.06;4990930;28;20517;-60
2022/06/19 01:15:44;;;;;;;15.38;3.90;;;;;;;14.53;100.00;164365.28;4990011;28;20038;-60
2022/06/19 01:18:11;;;;;;;12.60;3.78;;;;;;;14.50;100.00;164357.16;4985136;28;20449;-60
2022/06/19 01:20:39;;;;;;;13.48;3.10;;;;;;;14.50;100.00;164357.16;4981166;28;20034;-60
2022/06/19 01:23:22;;;;;;;11.18;3.53;;;;;;;14.46;100.00;164346.34;4971720;28;20177;-60
2022/06/19 01:25:50;;;;;;;18.58;4.13;;;;;;;14.41;100.00;164332.78;4970009;28;20077;-60
2022/06/19 01:28:45;;;;;;;18.48;5.57;;;;;;;14.32;100.00;164308.47;4972142;28;20139;-60
2022/06/19 01:31:14;;;;;;;17.05;3.90;;;;;;;14.18;100.00;164273.31;4988749;28;20046;-60
2022/06/19 01:33:47;;;;;;;21.17;6.18;;;;;;;14.10;100.00;164251.66;4990945;28;20430;-60
2022/06/19 01:36:15;;;;;;;12.02;4.60;;;;;;;14.05;100.00;164238.09;4984349;28;20042;-60
2022/06/19 01:38:46;;;;;;;18.58;5.43;;;;;;;13.98;100.00;164219.16;4991187;28;20022;-60
2022/06/19 01:41:15;;;;;;;19.58;5.53;;;;;;;14.03;100.00;164232.72;4989055;28;20046;-63
2022/06/19 01:43:41;;;;;;;17.80;4.47;;;;;;;14.06;100.00;164240.81;4990694;28;20033;-60
2022/06/19 01:46:07;;;;;;;18.30;4.18;;;;;;;14.06;100.00;164240.81;4989292;28;20030;-61
2022/06/19 01:48:34;;;;;;;25.00;3.97;;;;;;;14.01;100.00;164227.31;4990958;28;20481;-61
2022/06/19 01:51:03;;;;;;;11.85;3.88;;;;;;;13.97;100.00;164217.84;4980760;28;20042;-61
2022/06/19 01:53:35;;;;;;;11.95;4.32;;;;;;;13.91;100.00;164201.63;4973942;28;20445;-61
2022/06/19 01:56:03;;;;;;;15.43;4.90;;;;;;;13.86;100.00;164188.06;4972187;28;20061;-60
2022/06/19 01:58:32;;;;;;;11.65;3.90;;;;;;;13.84;100.00;164182.69;4990784;28;20107;-60
2022/06/19 02:00:58;;;;;;;15.93;5.75;;;;;;;13.86;100.00;164188.06;4984447;28;20066;-60
2022/06/19 02:03:39;;;;;;;12.38;4.35;;;;;;;13.92;100.00;164205.66;4981406;28;20082;-60
2022/06/19 02:06:07;;;;;;;14.93;4.85;;;;;;;14.06;100.00;164242.19;4986383;28;20129;-60
2022/06/19 02:08:34;;;;;;;19.17;5.38;;;;;;;14.02;100.00;164231.34;4992145;28;20029;-60
2022/06/19 02:11:01;;;;;;;8.48;3.58;;;;;;;13.96;100.00;164216.47;4992622;28;20065;-59
2022/06/19 02:13:27;;;;;;;16.55;5.35;;;;;;;13.88;100.00;164194.84;4994457;28;20505;-60
2022/06/19 02:15:53;;;;;;;15.13;4.30;;;;;;;13.86;100.00;164189.44;4985884;28;20123;-59
2022/06/19 02:18:23;;;;;;;15.90;3.47;;;;;;;13.85;100.00;164185.41;4978579;28;20034;-59
2022/06/19 02:20:51;;;;;;;12.18;4.47;;;;;;;13.84;100.00;164184.00;4989096;28;20394;-59
2022/06/19 02:23:20;;;;;;;14.60;4.28;;;;;;;13.83;100.00;164181.31;4994491;28;20026;-60
2022/06/19 02:25:47;;;;;;;9.60;4.00;;;;;;;13.88;100.00;164194.84;4990882;28;20038;-60
2022/06/19 02:28:13;;;;;;;11.35;4.28;;;;;;;13.87;100.00;164192.16;4993661;28;20037;-60
2022/06/19 02:30:40;;;;;;;12.88;3.20;;;;;;;13.87;100.00;164192.16;4993085;28;20038;-59
2022/06/19 02:33:06;;;;;;;10.80;3.67;;;;;;;13.85;100.00;164185.41;4993895;28;20022;-61
2022/06/19 02:35:31;;;;;;;15.10;4.50;;;;;;;13.84;100.00;164184.00;4988254;28;20401;-60
2022/06/19 02:37:57;;;;;;;7.50;2.53;;;;;;;13.82;100.00;164177.25;4981612;28;20018;-61
2022/06/19 02:40:47;;;;;;;7.20;2.58;;;;;;;13.67;100.00;164139.41;4973034;28;20447;-60
2022/06/19 02:43:22;;;;;;;9.90;2.58;;;;;;;13.73;100.00;164154.28;4974085;28;20031;-60
2022/06/19 02:45:48;;;;;;;13.88;4.32;;;;;;;13.71;100.00;164150.19;4973186;28;20407;-60
2022/06/19 02:48:20;;;;;;;8.40;3.17;;;;;;;13.72;100.00;164151.56;4974482;28;20031;-60
2022/06/19 02:50:46;;;;;;;16.60;5.00;;;;;;;13.70;100.00;164146.16;4977560;28;20521;-60
2022/06/19 02:53:11;;;;;;;16.30;5.07;;;;;;;13.70;100.00;164146.16;4989227;28;20030;-60
2022/06/19 02:55:37;;;;;;;11.05;3.33;;;;;;;13.63;100.00;164129.94;4990707;28;20040;-60
2022/06/19 02:58:02;;;;;;;14.40;3.65;;;;;;;13.60;100.00;164120.47;4993348;28;20030;-60
2022/06/19 03:00:28;;;;;;;16.25;3.60;;;;;;;13.54;100.00;164105.56;4988986;28;20049;-60
2022/06/19 03:02:58;;;;;;;27.83;4.47;;;;;;;13.52;100.00;164100.16;4973874;28;20026;-60
2022/06/19 03:05:26;;;;;;;15.30;5.05;;;;;;;13.52;100.00;164098.81;4973214;28;20027;-60
2022/06/19 03:07:52;;;;;;;20.63;5.78;;;;;;;13.52;100.00;164098.81;4977319;28;20057;-61
2022/06/19 03:10:18;;;;;;;14.70;5.00;;;;;;;13.50;100.00;164094.78;4987067;28;20050;-61
2022/06/19 03:12:44;;;;;;;19.23;5.82;;;;;;;13.48;100.00;164089.34;4976524;28;20026;-62
2022/06/19 03:15:11;;;;;;;14.63;5.65;;;;;;;13.52;100.00;164098.81;4973424;28;20057;-61
2022/06/19 03:17:37;;;;;;;20.55;5.40;;;;;;;13.47;100.00;164086.66;4978157;28;20026;-61
2022/06/19 03:20:03;;;;;;;21.17;5.45;;;;;;;13.56;100.00;164111.00;4971927;28;20082;-60
2022/06/19 03:22:28;;;;;;;15.20;3.88;;;;;;;13.51;100.00;164097.50;4980136;28;20042;-61
2022/06/19 03:24:54;;;;;;;18.25;3.95;;;;;;;13.45;100.00;164081.22;4978715;28;20023;-60
2022/06/19 03:27:19;;;;;;;16.33;3.95;;;;;;;13.45;100.00;164081.22;4977556;28;20450;-60
2022/06/19 03:29:44;;;;;;;14.40;5.70;;;;;;;13.48;100.00;164090.69;4989903;28;20030;-61
2022/06/19 03:32:12;;;;;;;27.83;4.22;;;;;;;13.47;100.00;164088.03;4990110;28;20043;-61
2022/06/19 03:34:38;;;;;;;23.70;5.78;;;;;;;13.49;100.00;164092.06;4992641;28;20034;-61
2022/06/19 03:37:04;;;;;;;20.08;5.80;;;;;;;13.48;100.00;164090.69;4991325;28;20034;-61
2022/06/19 03:39:30;;;;;;;22.65;5.10;;;;;;;13.52;100.00;164100.16;4992501;28;20026;-61
2022/06/19 03:41:55;;;;;;;20.73;6.35;;;;;;;13.51;100.00;164097.50;4991252;28;20459;-61
2022/06/19 03:44:20;;;;;;;20.70;5.85;;;;;;;13.54;100.00;164105.56;4984103;28;20376;-61
2022/06/19 03:46:46;;;;;;;17.83;7.07;;;;;;;13.54;100.00;164105.56;4976274;28;20065;-61
2022/06/19 03:49:11;;;;;;;15.57;5.03;;;;;;;13.43;100.00;164077.19;4973165;28;20030;-60
2022/06/19 03:51:36;;;;;;;13.75;4.80;;;;;;;13.42;100.00;164073.13;4989075;28;20053;-58
2022/06/19 03:54:03;;;;;;;9.88;3.70;;;;;;;13.42;100.00;164073.13;4990351;28;20037;-61
2022/06/19 03:56:30;;;;;;;9.50;3.30;;;;;;;13.43;100.00;164075.84;4991377;28;20062;-61
2022/06/19 03:58:57;;;;;;;12.52;3.10;;;;;;;13.43;100.00;164075.84;4982392;28;20038;-61
2022/06/19 04:01:30;;;;;;;14.52;4.43;;;;;;;13.46;100.00;164083.94;4978628;28;20046;-61
2022/06/19 04:03:56;;;;;;;15.27;3.42;;;;;;;13.52;100.00;164100.16;4976006;28;20031;-61
2022/06/19 04:06:24;;;;;;;17.00;5.18;;;;;;;13.67;100.00;164138.00;4971677;28;20520;-61
2022/06/19 04:08:50;;;;;;;12.43;3.05;;;;;;;13.69;100.00;164143.44;4974768;28;20038;-61
2022/06/19 04:11:18;;;;;;;16.85;4.43;;;;;;;13.50;100.00;164094.78;4989575;28;20042;-64
2022/06/19 04:13:44;;;;;;;9.67;3.10;;;;;;;13.48;100.00;164090.69;4992686;28;20034;-58
2022/06/19 04:16:19;;;;;;;9.35;2.25;;;;;;;13.49;100.00;164092.06;4982374;28;20133;-57
2022/06/19 04:18:45;;;;;;;11.77;3.28;;;;;;;13.45;100.00;164081.22;4980853;28;20034;-57
2022/06/19 04:21:15;;;;;;;15.23;3.50;;;;;;;13.42;100.00;164073.13;4994025;28;20100;-57
2022/06/19 04:23:41;;;;;;;6.97;2.72;;;;;;;13.42;100.00;164073.13;4997386;28;20021;-57
2022/06/19 04:26:09;;;;;;;11.98;3.45;;;;;;;13.49;100.00;164092.06;4981396;28;20074;-57
2022/06/19 04:28:34;;;;;;;8.13;3.40;;;;;;;13.51;100.00;164097.50;4981502;28;20133;-57
2022/06/19 04:31:00;;;;;;;10.50;2.40;;;;;;;13.50;100.00;164094.78;4999902;28;20034;-57
2022/06/19 04:33:25;;;;;;;12.68;2.83;;;;;;;13.54;100.00;164105.56;5011669;28;20026;-56
2022/06/19 04:35:50;;;;;;;12.27;2.50;;;;;;;13.64;100.00;164132.63;5005262;28;20045;-57
2022/06/19 04:38:16;;;;;;;8.10;2.70;;;;;;;13.69;100.00;164143.44;4992455;28;20026;-57
2022/06/19 04:40:42;;;;;;;14.30;3.45;;;;;;;13.75;100.00;164159.66;4990330;28;20117;-57
2022/06/19 04:43:09;;;;;;;12.23;4.40;;;;;;;13.75;100.00;164159.66;4999285;28;20091;-57
2022/06/19 04:45:34;;;;;;;12.98;5.65;;;;;;;13.83;100.00;164181.31;5004658;28;20043;-57
2022/06/19 04:48:00;;;;;;;15.98;2.95;;;;;;;13.87;100.00;164192.16;5006164;28;20021;-57
2022/06/19 04:50:25;;;;;;;12.60;4.28;;;;;;;13.81;100.00;164175.94;5000063;28;20782;-57
2022/06/19 04:52:51;;;;;;;11.65;3.65;;;;;;;13.88;100.00;164194.84;4994317;28;20038;-58
2022/06/19 04:55:17;;;;;;;19.08;4.47;;;;;;;13.88;100.00;164194.84;5004165;28;20049;-57
2022/06/19 04:57:43;;;;;;;17.20;5.93;;;;;;;14.00;100.00;164224.59;4991071;28;20033;-57
2022/06/19 05:00:12;;;;;;;15.23;4.57;;;;;;;13.99;100.00;164221.88;4997925;28;20049;-57
2022/06/19 05:02:39;;;;;;;13.00;3.25;;;;;;;14.02;100.00;164231.34;5009811;28;20056;-58
2022/06/19 05:05:06;;;;;;;18.70;3.80;;;;;;;14.10;100.00;164251.66;5008995;28;20053;-58
2022/06/19 05:07:32;;;;;;;17.98;4.40;;;;;;;14.14;100.00;164261.13;5008020;28;20124;-57
2022/06/19 05:09:57;;;;;;;13.93;3.28;;;;;;;14.20;100.00;164278.69;5003034;28;20030;-58
2022/06/19 05:12:23;;;;;;;8.65;3.40;;;;;;;14.27;100.00;164296.28;5006778;28;20022;-58
2022/06/19 05:14:48;;;;;;;15.82;3.67;;;;;;;14.26;100.00;164294.91;5008636;28;20050;-57
2022/06/19 05:17:13;;;;;;;20.63;4.93;;;;;;;14.36;100.00;164320.66;5010286;28;20022;-58
2022/06/19 05:19:42;;;;;;;9.07;3.55;;;;;;;14.46;100.00;164346.34;4994133;28;20038;-58
2022/06/19 05:22:08;;;;;;;9.60;3.13;;;;;;;14.52;100.00;164362.59;4994356;28;20521;-58
2022/06/19 05:24:33;;;;;;;16.27;4.28;;;;;;;14.53;100.00;164365.28;5010621;28;20026;-58
2022/06/19 05:26:59;;;;;;;10.63;3.85;;;;;;;14.59;100.00;164381.53;5005712;28;20052;-58
2022/06/19 05:29:25;;;;;;;19.05;3.80;;;;;;;14.66;100.00;164397.81;5009499;28;20080;-57
2022/06/19 05:31:50;;;;;;;11.05;3.15;;;;;;;14.85;100.00;164449.25;5008584;28;20037;-58
2022/06/19 05:34:16;;;;;;;15.30;5.25;;;;;;;15.01;100.00;164489.81;5009196;28;20036;-57
2022/06/19 05:36:41;;;;;;;14.70;4.40;;;;;;;14.94;100.00;164470.88;5010023;28;20037;-58
2022/06/19 05:39:08;;;;;;;18.92;5.22;;;;;;;15.00;100.00;164487.16;5015316;28;20037;-58
2022/06/19 05:41:34;;;;;;;23.98;3.63;;;;;;;14.88;100.00;164457.34;5016126;28;20033;-57
2022/06/19 05:43:59;;;;;;;14.48;4.28;;;;;;;14.94;100.00;164470.88;5021390;28;20052;-57
2022/06/19 05:46:24;;;;;;;17.00;4.03;;;;;;;15.12;100.00;164519.59;5017936;28;20420;-57
2022/06/19 05:48:50;;;;;;;9.20;3.05;;;;;;;15.19;100.00;164538.56;5020421;28;20129;-57
2022/06/19 05:51:21;;;;;;;8.82;4.13;;;;;;;15.27;100.00;164557.50;5021101;28;20042;-57
2022/06/19 05:53:51;;;;;;;14.05;4.78;;;;;;;15.39;100.00;164591.34;5017933;28;20078;-57
2022/06/19 05:56:17;;;;;;;12.15;3.42;;;;;;;15.52;100.00;164625.22;5015020;28;20137;-57
2022/06/19 05:58:42;;;;;;;13.57;3.05;;;;;;;15.57;100.00;164636.03;5023448;28;20029;-57
2022/06/19 06:01:09;;;;;;;14.38;3.95;;;;;;;15.61;100.00;164646.84;5015705;28;20707;-57
2022/06/19 06:03:35;;;;;;;8.23;2.80;;;;;;;15.72;100.00;164676.66;5005252;28;20049;-57
2022/06/19 06:06:02;;;;;;;12.52;4.25;;;;;;;15.86;100.00;164714.59;4992405;28;20065;-57
2022/06/19 06:08:28;;;;;;;20.15;3.90;;;;;;;15.94;100.00;164733.56;5011614;28;20476;-57
2022/06/19 06:10:54;;;;;;;12.60;3.08;;;;;;;15.99;100.00;164747.09;5021708;28;20057;-57
2022/06/19 06:13:19;;;;;;;10.35;2.67;;;;;;;16.02;100.00;164755.22;5021573;28;20022;-57
2022/06/19 06:15:48;;;;;;;11.70;2.90;;;;;;;16.06;100.00;164766.03;5020102;28;20042;-58
2022/06/19 06:18:14;;;;;;;11.32;3.80;;;;;;;16.15;100.00;164790.44;5015563;28;20075;-57
2022/06/19 06:20:39;;;;;;;17.17;4.18;;;;;;;16.24;100.00;164813.44;5020091;28;20046;-57
2022/06/19 06:23:05;;;;;;;15.98;3.85;;;;;;;16.15;100.00;164790.44;5017988;28;20534;-57
2022/06/19 06:25:31;;;;;;;15.20;3.97;;;;;;;16.29;100.00;164825.63;5012284;28;20049;-57
2022/06/19 06:27:56;;;;;;;13.15;3.45;;;;;;;16.07;100.00;164768.75;5021087;28;20469;-57
2022/06/19 06:30:22;;;;;;;11.95;3.78;;;;;;;16.24;100.00;164812.09;5011847;28;20037;-57
2022/06/19 06:32:47;;;;;;;14.38;3.67;;;;;;;16.22;100.00;164806.69;4997616;28;20045;-57
2022/06/19 06:35:12;;;;;;;12.18;2.83;;;;;;;16.30;100.00;164828.34;4992104;28;20042;-57
2022/06/19 06:37:38;;;;;;;9.38;3.45;;;;;;;16.54;100.00;164890.66;4994513;28;20422;-57
2022/06/19 06:40:05;;;;;;;14.32;3.78;;;;;;;16.54;100.00;164890.66;4992215;28;20057;-57
2022/06/19 06:42:31;;;;;;;9.47;3.73;;;;;;;16.84;100.00;164970.56;5005467;28;20109;-56
2022/06/19 06:44:56;;;;;;;9.27;3.30;;;;;;;16.78;100.00;164955.72;5018228;28;20539;-58
2022/06/19 06:47:21;;;;;;;14.13;3.88;;;;;;;16.82;100.00;164965.19;5020689;28;20022;-57
2022/06/19 06:49:47;;;;;;;15.35;5.05;;;;;;;16.80;100.00;164961.09;5015472;28;20025;-57
2022/06/19 06:52:12;;;;;;;15.48;3.25;;;;;;;16.95;100.00;164999.06;5009711;28;20024;-57
2022/06/19 06:54:39;;;;;;;18.85;5.18;;;;;;;17.24;100.00;165074.94;5021109;28;20091;-57
2022/06/19 06:57:06;;;;;;;6.68;3.70;;;;;;;17.41;100.00;165121.03;5020329;28;20041;-57
2022/06/19 06:59:32;;;;;;;17.73;3.42;;;;;;;17.13;100.00;165047.88;5019446;28;20113;-57
2022/06/19 07:01:59;;;;;;;14.25;4.00;;;;;;;17.12;100.00;165043.81;5019670;28;20034;-57
2022/06/19 07:04:24;;;;;;;16.35;3.70;;;;;;;17.12;100.00;165045.16;5028685;28;20047;-57
2022/06/19 07:06:49;;;;;;;8.00;2.70;;;;;;;17.06;100.00;165028.91;5006632;28;20544;-57
2022/06/19 07:09:14;;;;;;;15.05;5.22;;;;;;;17.05;100.00;165026.19;5019014;28;20029;-57
2022/06/19 07:11:42;;;;;;;10.90;3.28;;;;;;;17.17;100.00;165055.97;5011412;28;20041;-57
2022/06/19 07:14:09;;;;;;;23.73;6.43;;;;;;;17.16;100.00;165053.31;5012477;28;20964;-57
2022/06/19 07:16:35;;;;;;;27.20;4.68;;;;;;;17.00;100.00;165012.66;5010629;28;20449;-58
2022/06/19 07:19:01;;;;;;;11.27;2.53;;;;;;;16.98;100.00;165007.22;4992785;28;20137;-57
2022/06/19 07:21:26;;;;;;;12.38;2.95;;;;;;;16.80;100.00;164961.09;4991134;28;20061;-57
2022/06/19 07:23:51;;;;;;;17.25;6.68;;;;;;;17.10;100.00;165039.72;4992850;28;20057;-57
2022/06/19 07:26:19;;;;;;;15.05;3.88;;;;;;;17.13;100.00;165047.88;4999021;28;20049;-57
2022/06/19 07:28:46;;;;;;;12.37;3.00;;;;;;;17.35;100.00;165104.78;5016313;28;20382;-57
2022/06/19 07:31:12;;;;;;;8.43;3.20;;;;;;;17.54;100.00;165153.56;5016043;28;20394;-57
2022/06/19 07:33:38;;;;;;;13.30;2.78;;;;;;;17.66;100.00;165186.13;5020941;28;20021;-57
2022/06/19 07:36:06;;;;;;;11.45;2.25;;;;;;;17.47;100.00;165135.97;5017258;28;20564;-57
2022/06/19 07:38:31;;;;;;;11.20;2.93;;;;;;;17.62;100.00;165175.25;5019176;28;20144;-57
2022/06/19 07:40:56;;;;;;;6.43;3.08;;;;;;;17.70;100.00;165196.94;5020406;28;20480;-57
2022/06/19 07:43:22;;;;;;;9.88;2.53;;;;;;;17.61;100.00;165172.53;5020715;28;20434;-57
2022/06/19 07:45:48;;;;;;;9.95;3.15;;;;;;;17.58;100.00;165164.44;5020661;28;20052;-57
2022/06/19 07:50:57;;;;;;;7.35;2.70;;;;;;;17.34;100.00;165102.06;5014060;28;20171;-57
2022/06/19 07:53:23;;;;;;;9.13;3.20;;;;;;;17.20;100.00;165064.13;5022510;28;20025;-57
2022/06/19 07:55:48;;;;;;;10.85;3.45;;;;;;;17.12;100.00;165045.16;5014758;28;20049;-58
2022/06/19 07:58:14;;;;;;;5.90;3.28;;;;;;;17.12;100.00;165045.16;5021476;28;20469;-57
2022/06/19 08:00:40;;;;;;;7.95;2.45;;;;;;;16.92;100.00;164992.31;5024398;28;20033;-58
2022/06/19 08:03:06;;;;;;;6.35;2.65;;;;;;;16.90;100.00;164985.50;5009924;28;20083;-57
2022/06/19 08:05:35;;;;;;;10.50;3.03;;;;;;;16.86;100.00;164976.00;5027290;28;20045;-57
2022/06/19 08:08:04;;;;;;;18.60;3.53;;;;;;;16.84;100.00;164969.25;5007623;28;20023;-57
2022/06/19 08:10:31;;;;;;;;;;;;;;;16.69;100.00;164931.31;5018614;28;20493;-58
2022/06/19 08:12:57;;;;;;;7.55;1.95;;;;;;;16.67;100.00;164925.88;5017069;28;19913;-57
2022/06/19 08:15:22;;;;;;;11.60;3.17;;;;;;;16.73;100.00;164942.13;5010791;28;20551;-57
2022/06/19 08:17:48;;;;;;;12.00;4.47;;;;;;;16.79;100.00;164958.38;5020666;28;20045;-57
2022/06/19 08:20:16;;;;;;;15.05;4.22;;;;;;;16.84;100.00;164969.25;5019043;28;20048;-57
2022/06/19 08:22:42;;;;;;;8.17;2.33;;;;;;;16.78;100.00;164955.72;5021867;28;20028;-57
2022/06/19 08:25:09;;;;;;;11.85;3.03;;;;;;;16.47;100.00;164874.41;5018082;28;20196;-57
2022/06/19 08:27:42;;;;;;;10.70;2.55;;;;;;;16.11;100.00;164779.63;5022348;28;20025;-57
2022/06/19 08:30:25;;;;;;;9.30;2.33;;;;;;;16.00;100.00;164749.81;5017955;28;20045;-58
2022/06/19 08:32:51;;;;;;;9.18;2.88;;;;;;;15.97;100.00;164741.72;5011001;28;20488;-58
2022/06/19 08:35:17;;;;;;;11.88;4.00;;;;;;;15.93;100.00;164730.84;5011630;28;20038;-58
2022/06/19 08:37:45;;;;;;;14.10;4.38;;;;;;;15.83;100.00;164706.47;5020328;28;20032;-58
2022/06/19 08:40:32;;;;;;;9.55;2.97;;;;;;;15.52;100.00;164625.22;5018944;28;20044;-57
2022/06/19 08:43:30;;;;;;;6.78;1.90;;;;;;;15.28;100.00;164560.22;5018293;28;20025;-57
2022/06/19 08:46:17;;;;;;;10.73;2.92;;;;;;;15.16;100.00;164530.41;5015708;28;20044;-58
2022/06/19 08:48:59;;;;;;;14.27;3.50;;;;;;;14.94;100.00;164470.88;5016745;28;20552;-57
2022/06/19 08:51:57;;;;;;;10.60;2.35;;;;;;;14.69;100.00;164407.28;5015693;28;20061;-57
2022/06/19 08:54:35;;;;;;;13.07;3.07;;;;;;;14.36;100.00;164319.28;5018306;28;20392;-58
2022/06/19 08:57:18;;;;;;;13.52;2.53;;;;;;;14.12;100.00;164258.41;5019619;28;20061;-57
2022/06/19 08:59:56;;;;;;;9.98;4.20;;;;;;;13.74;100.00;164156.94;5018795;28;20121;-57
2022/06/19 09:02:37;;;;;;;11.13;3.58;;;;;;;13.69;100.00;164143.44;5017361;28;20159;-57
2022/06/19 09:05:36;;;;;;;18.77;4.13;;;;;;;13.76;100.00;164162.38;5013062;28;20096;-57
2022/06/19 09:08:16;;;;;;;11.38;5.07;;;;;;;13.85;100.00;164186.72;5018505;28;20108;-57
2022/06/19 09:10:59;;;;;;;24.35;5.55;;;;;;;13.53;100.00;164102.88;5017379;28;20034;-57
2022/06/19 09:13:40;;;;;;;12.07;3.25;;;;;;;13.58;100.00;164116.41;5015791;28;20021;-57
2022/06/19 09:16:26;;;;;;;13.10;4.22;;;;;;;13.39;100.00;164065.00;5015248;28;20048;-57
2022/06/19 09:19:18;;;;;;;14.73;4.82;;;;;;;13.29;100.00;164040.59;5015493;28;20050;-57
2022/06/19 09:22:02;;;;;;;15.40;3.65;;;;;;;13.36;100.00;164058.19;5010973;28;20460;-57
2022/06/19 09:24:27;;;;;;;23.25;5.30;;;;;;;13.57;100.00;164113.72;5016891;28;20031;-57
2022/06/19 09:26:56;;;;;;;24.10;6.97;;;;;;;13.49;100.00;164092.06;5012588;28;20173;-58
2022/06/19 09:29:39;;;;;;;17.05;5.13;;;;;;;13.49;100.00;164092.06;5020678;28;20049;-58
2022/06/19 09:32:22;;;;;;;15.93;4.97;;;;;;;13.62;100.00;164127.22;5012666;28;20041;-58
2022/06/19 09:35:00;;;;;;;21.60;5.68;;;;;;;13.48;100.00;164089.34;5015582;28;20021;-57
2022/06/19 09:37:43;;;;;;;15.18;4.80;;;;;;;13.29;100.00;164040.59;5016709;28;20013;-57
2022/06/19 09:40:26;;;;;;;15.73;5.88;;;;;;;13.28;100.00;164037.94;5014474;28;20745;-57
2022/06/19 09:43:01;;;;;;;23.25;4.78;;;;;;;13.13;100.00;163997.38;5017031;28;20017;-57
2022/06/19 09:45:39;;;;;;;18.27;5.80;;;;;;;13.10;100.00;163989.25;5013608;28;20072;-57
2022/06/19 09:48:23;;;;;;;11.40;4.40;;;;;;;13.37;100.00;164059.53;5016054;28;20109;-57
2022/06/19 09:50:53;;;;;;;16.92;5.70;;;;;;;13.61;100.00;164124.50;5014740;28;20091;-57
2022/06/19 09:53:40;;;;;;;24.50;6.70;;;;;;;13.62;100.00;164125.88;5016722;28;20064;-57
2022/06/19 09:56:33;;;;;;;16.15;4.28;;;;;;;13.53;100.00;164102.88;5014394;28;20046;-58
2022/06/19 09:59:07;;;;;;;13.77;3.90;;;;;;;13.52;100.00;164100.16;5018880;28;20020;-57
2022/06/19 10:01:33;;;;;;;23.63;5.72;;;;;;;13.41;100.00;164070.44;5013114;28;20073;-57
2022/06/19 10:04:02;;;;;;;19.92;6.03;;;;;;;13.37;100.00;164059.53;5018457;28;20028;-57
2022/06/19 10:06:45;;;;;;;16.98;4.68;;;;;;;13.26;100.00;164032.53;5017001;28;20033;-57
2022/06/19 10:09:26;;;;;;;28.35;7.68;;;;;;;13.33;100.00;164051.44;5018368;28;20068;-57
2022/06/19 10:11:55;;;;;;;20.27;6.50;;;;;;;13.46;100.00;164083.94;5017630;28;20040;-57
2022/06/19 10:14:20;;;;;;;18.88;4.93;;;;;;;13.42;100.00;164073.13;5019544;28;20036;-57
2022/06/19 10:16:58;;;;;;;11.48;5.10;;;;;;;13.55;100.00;164108.28;5013417;28;20117;-58
2022/06/19 10:20:04;;;;;;;17.13;5.00;;;;;;;13.94;100.00;164209.69;5012842;28;20110;-57
2022/06/19 10:22:30;;;;;;;19.80;7.05;;;;;;;14.26;100.00;164294.91;4990635;28;20042;-58
2022/06/19 10:25:19;;;;;;;22.23;4.93;;;;;;;14.54;100.00;164368.00;5007485;28;20156;-57
2022/06/19 10:27:54;;;;;;;18.00;4.65;;;;;;;15.02;100.00;164492.53;5009760;28;20053;-57
2022/06/19 10:30:58;;;;;;;12.93;3.17;;;;;;;15.28;100.00;164561.56;5010030;28;20497;-57
2022/06/19 10:33:38;;;;;;;17.15;5.75;;;;;;;15.23;100.00;164549.38;4992863;28;20042;-57
2022/06/19 10:36:26;;;;;;;18.05;5.57;;;;;;;15.74;100.00;164682.06;4994177;28;20505;-57
2022/06/19 10:39:20;;;;;;;23.13;7.20;;;;;;;15.75;100.00;164684.75;4993840;28;20081;-57
2022/06/19 10:42:03;;;;;;;12.65;3.05;;;;;;;15.74;100.00;164682.06;5000597;28;20076;-57
2022/06/19 10:44:49;;;;;;;7.15;2.78;;;;;;;16.22;100.00;164806.69;5014374;28;20033;-57
2022/06/19 10:47:23;;;;;;;8.55;3.58;;;;;;;16.41;100.00;164856.78;5017744;28;20041;-57
2022/06/19 10:50:03;;;;;;;13.77;4.95;;;;;;;16.69;100.00;164931.31;5012196;28;20030;-58
2022/06/19 10:52:38;;;;;;;15.05;4.55;;;;;;;17.15;100.00;165050.59;5014026;28;20034;-58
2022/06/19 10:55:25;;;;;;;14.98;4.53;;;;;;;17.61;100.00;165172.53;4994046;28;20050;-58
2022/06/19 10:58:00;;;;;;;11.30;4.18;;;;;;;17.70;100.00;165196.94;5011618;28;20033;-58
2022/06/19 11:00:26;;;;;;;10.20;3.58;;;;;;;17.88;100.00;165243.03;5005123;28;20516;-57
2022/06/19 11:06:17;;;;;;;21.42;4.63;;;;;;;17.82;100.00;165226.78;5008517;28;20052;-58
2022/06/19 11:08:46;;;;;;;20.40;4.80;;;;;;;17.39;100.00;165115.59;5009922;28;20096;-58
2022/06/19 11:11:15;;;;;;;13.88;4.43;;;;;;;17.20;100.00;165065.47;5006609;28;20048;-58
2022/06/19 11:14:01;;;;;;;10.25;2.63;;;;;;;17.50;100.00;165142.72;5004661;28;20109;-57
2022/06/19 11:16:28;;;;;;;13.68;4.78;;;;;;;17.37;100.00;165110.22;4990344;28;20045;-58
2022/06/19 11:18:54;;;;;;;15.67;3.73;;;;;;;17.31;100.00;165093.97;4991901;28;20045;-58
2022/06/19 11:21:25;;;;;;;10.52;3.42;;;;;;;17.28;100.00;165087.16;4991977;28;20706;-58
2022/06/19 11:23:54;;;;;;;12.00;3.22;;;;;;;17.24;100.00;165076.34;4992920;28;20577;-58
2022/06/19 11:26:23;;;;;;;8.95;2.85;;;;;;;17.48;100.00;165137.28;4994691;28;20050;-58
2022/06/19 11:29:20;;;;;;;15.38;4.85;;;;;;;17.53;100.00;165150.88;4999648;28;20604;-58
2022/06/19 11:32:26;;;;;;;12.18;4.25;;;;;;;18.13;100.00;165308.19;4998005;28;20050;-57